Time;durP1;ratioP1;P1;durP2;ratioP2;P2;SDS_P1;SDS_P2;PMS_P1;PMS_P2;Temp;Humidity;BMP_temperature;BMP_pressure;BME280_temperature;BME280_humidity;BME280_pressure;Samples;Min_cycle;Max_cycle;Signal;HPM_P1;HPM_P2
2023/11/29 00:00:15;;;;;;;9.20;5.38;;;;;;;5.18;71.39;92249.75;4877767;29;20528;-78
2023/11/29 00:02:40;;;;;;;8.77;5.90;;;;;;;5.31;69.77;92253.25;4879924;29;20040;-77
2023/11/29 00:05:06;;;;;;;8.35;5.80;;;;;;;5.29;70.45;92271.22;4889587;29;20032;-75
2023/11/29 00:07:32;;;;;;;6.85;5.60;;;;;;;5.38;69.41;92272.00;4881661;29;20463;-77
2023/11/29 00:09:57;;;;;;;7.65;5.72;;;;;;;5.34;69.90;92263.91;4884196;29;20120;-78
2023/11/29 00:12:23;;;;;;;7.18;5.88;;;;;;;5.36;69.64;92295.25;4871702;29;20551;-77
2023/11/29 00:14:49;;;;;;;10.00;7.45;;;;;;;5.32;69.87;92291.69;4880376;29;20614;-76
2023/11/29 00:17:14;;;;;;;10.57;7.75;;;;;;;5.34;69.56;92314.00;4882900;29;20072;-79
2023/11/29 00:19:43;;;;;;;7.97;6.20;;;;;;;5.38;68.54;92307.00;4882489;29;20504;-78
2023/11/29 00:22:10;;;;;;;7.28;5.43;;;;;;;5.36;68.28;92305.78;4876604;29;20096;-78
2023/11/29 00:24:35;;;;;;;8.10;5.00;;;;;;;5.43;67.83;92312.09;4883070;29;20040;-78
2023/11/29 00:27:01;;;;;;;4.30;3.28;;;;;;;5.47;68.01;92317.53;4880269;29;20270;-78
2023/11/29 00:29:27;;;;;;;4.93;3.42;;;;;;;5.43;68.59;92319.25;4878839;29;20156;-78
2023/11/29 00:31:53;;;;;;;6.47;4.75;;;;;;;5.53;67.46;92326.78;4883314;29;20625;-77
2023/11/29 00:34:18;;;;;;;4.45;3.53;;;;;;;5.47;67.44;92318.31;4879429;29;20851;-78
2023/11/29 00:36:46;;;;;;;2.67;2.20;;;;;;;5.49;66.63;92316.13;4881841;29;20691;-79
2023/11/29 00:39:12;;;;;;;1.95;1.67;;;;;;;5.36;67.11;92311.06;4880654;29;20072;-77
2023/11/29 00:41:37;;;;;;;1.95;1.40;;;;;;;5.63;66.53;92355.44;4898360;29;20037;-77
2023/11/29 00:44:04;;;;;;;2.17;1.27;;;;;;;5.55;66.32;92343.09;4881687;29;20036;-75
2023/11/29 00:46:29;;;;;;;2.88;2.03;;;;;;;5.53;66.96;92371.63;4884800;29;20041;-78
2023/11/29 00:48:55;;;;;;;4.22;2.83;;;;;;;4.80;69.74;92378.75;4884477;29;20444;-77
2023/11/29 00:51:20;;;;;;;5.53;4.25;;;;;;;4.20;73.97;92379.50;4875625;29;20571;-77
2023/11/29 00:53:45;;;;;;;7.20;4.57;;;;;;;4.75;73.19;92400.00;4883963;29;20040;-77
2023/11/29 00:56:11;;;;;;;5.43;3.83;;;;;;;4.65;73.32;92400.28;4881279;29;20135;-77
2023/11/29 00:58:36;;;;;;;2.42;1.95;;;;;;;4.61;72.97;92399.38;4886014;29;20016;-78
2023/11/29 01:01:02;;;;;;;5.30;2.25;;;;;;;4.62;73.40;92411.47;4884188;29;20116;-79
2023/11/29 01:03:27;;;;;;;3.58;1.88;;;;;;;4.87;72.60;92415.97;4897008;29;20135;-77
2023/11/29 01:05:53;;;;;;;2.72;1.58;;;;;;;4.46;73.59;92402.47;4885502;29;20563;-78
2023/11/29 01:08:24;;;;;;;1.55;1.45;;;;;;;4.43;73.40;92403.88;4874226;29;20399;-78
2023/11/29 01:10:51;;;;;;;2.08;1.45;;;;;;;4.57;73.32;92404.50;4881365;29;20060;-77
2023/11/29 01:13:16;;;;;;;4.00;1.50;;;;;;;4.10;75.07;92421.13;4896513;29;20065;-78
2023/11/29 01:15:42;;;;;;;3.95;1.67;;;;;;;4.01;76.11;92439.53;4883310;29;20134;-76
2023/11/29 01:18:08;;;;;;;4.18;1.90;;;;;;;3.64;76.92;92422.34;4880640;29;20564;-77
2023/11/29 01:20:33;;;;;;;2.63;1.55;;;;;;;4.00;76.65;92443.22;4897266;29;20053;-79
2023/11/29 01:22:59;;;;;;;2.08;1.45;;;;;;;3.86;75.74;92428.63;4882403;29;20056;-77
2023/11/29 01:25:24;;;;;;;1.80;1.13;;;;;;;4.13;75.63;92434.44;4886830;29;20036;-77
2023/11/29 01:27:50;;;;;;;2.70;1.30;;;;;;;4.40;74.23;92435.31;4886862;29;20135;-77
2023/11/29 01:30:16;;;;;;;1.30;0.90;;;;;;;4.29;73.31;92447.94;4885252;29;20028;-77
2023/11/29 01:32:41;;;;;;;1.45;1.30;;;;;;;4.42;72.68;92454.19;4899257;29;20044;-77
2023/11/29 01:35:07;;;;;;;1.20;1.10;;;;;;;4.13;72.83;92418.66;4880946;29;20059;-78
2023/11/29 01:37:34;;;;;;;0.80;0.80;;;;;;;4.16;73.61;92468.00;4887261;29;20055;-77
2023/11/29 01:39:59;;;;;;;0.95;0.90;;;;;;;4.27;72.95;92464.03;4885581;29;20048;-77
2023/11/29 01:42:25;;;;;;;1.08;0.95;;;;;;;4.10;72.65;92458.72;4884179;29;20394;-77
2023/11/29 01:44:51;;;;;;;0.77;0.77;;;;;;;4.16;72.35;92468.00;4878018;29;20044;-77
2023/11/29 01:47:17;;;;;;;1.08;0.70;;;;;;;4.43;71.56;92487.31;4883838;29;20044;-76
2023/11/29 01:49:43;;;;;;;0.70;0.70;;;;;;;4.39;70.79;92475.84;4896059;29;20960;-76
2023/11/29 01:52:09;;;;;;;0.70;0.70;;;;;;;4.39;70.84;92475.84;4887142;29;20033;-77
2023/11/29 01:54:35;;;;;;;0.77;0.77;;;;;;;4.18;70.94;92476.41;4886988;29;20442;-78
2023/11/29 01:57:00;;;;;;;0.60;0.60;;;;;;;4.35;69.97;92480.19;4885592;29;20036;-77
2023/11/29 01:59:27;;;;;;;1.10;0.80;;;;;;;4.06;71.42;92488.59;4886005;29;20056;-77
2023/11/29 02:01:52;;;;;;;0.80;0.80;;;;;;;4.07;72.18;92474.34;4875836;29;20036;-77
2023/11/29 02:04:18;;;;;;;1.23;1.10;;;;;;;4.30;71.56;92488.22;4883850;29;20035;-78
2023/11/29 02:06:45;;;;;;;3.22;1.92;;;;;;;4.44;71.22;92507.31;4883876;29;20051;-77
2023/11/29 02:09:11;;;;;;;1.40;1.30;;;;;;;4.43;70.90;92487.31;4885867;29;20048;-77
2023/11/29 02:11:41;;;;;;;1.98;1.40;;;;;;;4.51;71.13;92492.59;4885942;29;20037;-78
2023/11/29 02:14:07;;;;;;;2.35;2.15;;;;;;;4.80;69.28;92496.50;4883393;29;20051;-77
2023/11/29 02:16:34;;;;;;;1.77;1.55;;;;;;;4.81;69.32;92504.13;4879859;29;20250;-78
2023/11/29 02:18:59;;;;;;;2.08;1.30;;;;;;;4.76;68.80;92499.00;4886777;29;20132;-79
2023/11/29 02:21:25;;;;;;;1.25;1.10;;;;;;;4.59;69.13;92480.56;4888389;29;20040;-78
2023/11/29 02:24:07;;;;;;;0.80;0.80;;;;;;;4.88;69.07;92496.53;4885652;29;20037;-77
2023/11/29 02:26:33;;;;;;;1.00;0.90;;;;;;;4.93;68.17;92496.38;4888678;29;20039;-78
2023/11/29 02:28:58;;;;;;;0.80;0.80;;;;;;;4.89;68.53;92503.38;4886676;29;20028;-79
2023/11/29 02:31:24;;;;;;;0.90;0.90;;;;;;;4.87;68.16;92497.63;4887946;29;21233;-78
2023/11/29 02:33:49;;;;;;;2.08;0.90;;;;;;;4.86;68.43;92490.78;4886395;29;20100;-79
2023/11/29 02:36:15;;;;;;;0.95;0.90;;;;;;;4.72;68.73;92492.00;4888382;29;20033;-77
2023/11/29 02:38:40;;;;;;;1.50;1.40;;;;;;;4.93;68.24;92501.66;4884950;29;20039;-78
2023/11/29 02:41:06;;;;;;;1.30;1.20;;;;;;;4.85;68.76;92499.78;4886764;29;20052;-74
2023/11/29 02:43:32;;;;;;;1.10;1.00;;;;;;;4.91;68.96;92509.09;4886482;29;20032;-78
2023/11/29 02:45:57;;;;;;;1.98;1.80;;;;;;;4.57;69.57;92494.00;4886563;29;20036;-78
2023/11/29 02:48:22;;;;;;;1.23;1.13;;;;;;;4.66;70.07;92507.97;4885746;29;20116;-77
2023/11/29 02:50:48;;;;;;;1.27;1.17;;;;;;;4.49;69.82;92499.25;4885836;29;20044;-77
2023/11/29 02:53:13;;;;;;;2.35;1.38;;;;;;;4.58;70.17;92505.31;4886888;29;20052;-77
2023/11/29 02:55:39;;;;;;;1.80;1.00;;;;;;;4.67;69.89;92516.63;4887598;29;20028;-79
2023/11/29 02:58:04;;;;;;;1.02;0.93;;;;;;;4.60;69.40;92503.16;4887637;29;20037;-77
2023/11/29 03:00:30;;;;;;;1.10;1.00;;;;;;;4.79;67.63;92516.84;4880759;29;20268;-78
2023/11/29 03:02:55;;;;;;;0.90;0.90;;;;;;;4.40;67.06;92524.78;4883311;29;20295;-77
2023/11/29 03:05:21;;;;;;;1.10;1.00;;;;;;;4.21;68.48;92506.56;4878492;29;20139;-77
2023/11/29 03:07:46;;;;;;;1.13;1.02;;;;;;;4.06;68.73;92504.38;4884419;29;20426;-77
2023/11/29 03:10:13;;;;;;;1.88;1.65;;;;;;;3.90;70.11;92524.25;4884587;29;20028;-77
2023/11/29 03:12:39;;;;;;;4.18;2.70;;;;;;;3.91;70.17;92518.69;4898714;29;20041;-77
2023/11/29 03:15:05;;;;;;;1.17;1.08;;;;;;;4.02;69.70;92535.75;4885638;29;20249;-78
2023/11/29 03:17:30;;;;;;;1.42;1.33;;;;;;;3.92;68.74;92514.97;4887843;29;20044;-76
2023/11/29 03:19:56;;;;;;;1.25;1.15;;;;;;;3.83;69.86;92512.31;4874006;29;20041;-78
2023/11/29 03:22:21;;;;;;;1.30;1.20;;;;;;;3.97;69.48;92522.72;4885332;29;20728;-78
2023/11/29 03:24:47;;;;;;;1.30;1.20;;;;;;;3.90;70.32;92517.13;4878663;29;20322;-77
2023/11/29 03:27:13;;;;;;;2.97;1.40;;;;;;;4.09;69.78;92525.59;4883346;29;20041;-77
2023/11/29 03:29:39;;;;;;;1.33;1.23;;;;;;;4.03;70.24;92526.00;4884815;29;20045;-77
2023/11/29 03:32:04;;;;;;;1.30;1.20;;;;;;;3.95;68.32;92509.13;4896711;29;20035;-77
2023/11/29 03:34:30;;;;;;;1.20;1.10;;;;;;;3.93;69.18;92507.84;4899267;29;20099;-77
2023/11/29 03:36:55;;;;;;;1.92;1.67;;;;;;;3.82;69.64;92528.38;4885390;29;20496;-78
2023/11/29 03:39:21;;;;;;;2.38;1.75;;;;;;;3.87;69.91;92522.25;4888499;29;20044;-78
2023/11/29 03:41:48;;;;;;;1.98;1.42;;;;;;;3.98;70.20;92524.28;4886528;29;20032;-77
2023/11/29 03:44:13;;;;;;;1.30;1.20;;;;;;;4.18;69.38;92533.50;4884875;29;20036;-77
2023/11/29 03:46:39;;;;;;;1.10;1.00;;;;;;;4.10;69.34;92539.50;4877672;29;20092;-78
2023/11/29 03:49:04;;;;;;;0.90;0.90;;;;;;;3.98;70.02;92537.44;4884844;29;20036;-77
2023/11/29 03:51:30;;;;;;;1.10;1.00;;;;;;;3.83;70.01;92535.19;4899927;29;20490;-78
2023/11/29 03:53:55;;;;;;;0.80;0.80;;;;;;;3.98;69.62;92534.81;4883459;29;20350;-79
2023/11/29 03:56:21;;;;;;;1.58;1.48;;;;;;;4.03;69.56;92524.16;4883380;29;20220;-77
2023/11/29 03:58:46;;;;;;;1.30;1.20;;;;;;;4.11;68.90;92523.41;4897320;29;20064;-78
2023/11/29 04:01:12;;;;;;;2.03;1.80;;;;;;;4.27;68.67;92550.88;4886714;29;20080;-77
2023/11/29 04:03:37;;;;;;;1.42;1.33;;;;;;;4.23;67.39;92547.31;4882929;29;20048;-78
2023/11/29 04:06:03;;;;;;;2.17;1.17;;;;;;;4.23;68.36;92557.84;4883079;29;20048;-78
2023/11/29 04:08:28;;;;;;;1.35;1.25;;;;;;;4.25;68.71;92555.69;4883851;29;20037;-77
2023/11/29 04:10:54;;;;;;;1.95;1.50;;;;;;;4.18;68.94;92544.81;4883768;29;20626;-77
2023/11/29 04:13:20;;;;;;;1.85;1.60;;;;;;;4.27;69.05;92548.25;4900619;29;20033;-78
2023/11/29 04:15:45;;;;;;;2.20;1.50;;;;;;;4.35;68.30;92543.34;4882869;29;20734;-78
2023/11/29 04:18:11;;;;;;;1.50;1.20;;;;;;;4.25;68.68;92547.78;4885945;29;20041;-78
2023/11/29 04:20:36;;;;;;;1.88;1.77;;;;;;;4.27;68.53;92552.72;4884226;29;20045;-77
2023/11/29 04:23:04;;;;;;;2.65;1.75;;;;;;;4.20;69.05;92547.94;4886341;29;20036;-78
2023/11/29 04:25:30;;;;;;;2.17;2.00;;;;;;;4.11;69.14;92554.97;4882552;29;20462;-78
2023/11/29 04:27:55;;;;;;;2.83;2.30;;;;;;;3.97;69.54;92543.78;4886994;29;20439;-77
2023/11/29 04:30:21;;;;;;;1.73;1.55;;;;;;;4.11;68.55;92547.09;4883671;29;20151;-77
2023/11/29 04:32:46;;;;;;;1.95;1.58;;;;;;;3.90;69.24;92551.34;4886550;29;20037;-78
2023/11/29 04:35:12;;;;;;;2.75;2.08;;;;;;;3.83;69.95;92566.75;4885001;29;20055;-77
2023/11/29 04:37:37;;;;;;;2.28;1.88;;;;;;;3.69;70.21;92563.41;4886566;29;20043;-77
2023/11/29 04:40:04;;;;;;;2.35;1.60;;;;;;;3.54;70.98;92561.94;4887261;29;20041;-77
2023/11/29 04:42:29;;;;;;;1.60;1.50;;;;;;;3.42;71.51;92553.81;4886127;29;20041;-78
2023/11/29 04:44:55;;;;;;;1.60;1.30;;;;;;;3.45;71.75;92562.94;4883078;29;20314;-77
2023/11/29 04:47:20;;;;;;;1.98;1.65;;;;;;;3.50;71.44;92565.47;4882952;29;20051;-78
2023/11/29 04:49:46;;;;;;;2.65;1.83;;;;;;;3.48;71.66;92565.00;4884508;29;20029;-79
2023/11/29 04:52:11;;;;;;;3.45;2.05;;;;;;;3.46;71.53;92554.00;4887078;29;20504;-77
2023/11/29 04:54:37;;;;;;;2.50;1.85;;;;;;;3.29;72.11;92555.41;4884624;29;20801;-77
2023/11/29 04:57:02;;;;;;;2.20;1.83;;;;;;;3.57;71.27;92540.31;4882080;29;20047;-78
2023/11/29 04:59:28;;;;;;;3.08;2.40;;;;;;;3.62;71.03;92552.56;4897015;29;20092;-79
2023/11/29 05:01:53;;;;;;;2.22;1.83;;;;;;;3.76;70.23;92558.53;4885172;29;20036;-77
2023/11/29 05:04:19;;;;;;;2.35;1.80;;;;;;;3.86;69.32;92568.81;4885629;29;20503;-78
2023/11/29 05:06:45;;;;;;;3.17;2.33;;;;;;;3.81;69.02;92577.59;4883173;29;20579;-78
2023/11/29 05:09:14;;;;;;;4.15;2.08;;;;;;;3.95;68.54;92571.47;4878868;29;20128;-77
2023/11/29 05:11:40;;;;;;;2.72;2.13;;;;;;;4.03;67.47;92563.63;4884457;29;20040;-77
2023/11/29 05:14:06;;;;;;;2.05;1.83;;;;;;;4.11;67.22;92588.44;4876875;29;20037;-78
2023/11/29 05:16:32;;;;;;;2.63;2.17;;;;;;;4.10;67.31;92587.66;4881925;29;20039;-77
2023/11/29 05:18:58;;;;;;;2.58;2.28;;;;;;;3.81;68.32;92574.19;4880627;29;20409;-77
2023/11/29 05:21:23;;;;;;;2.35;2.15;;;;;;;3.88;68.07;92592.94;4911707;29;20049;-77
2023/11/29 05:23:49;;;;;;;3.05;2.20;;;;;;;3.89;68.50;92594.50;4893107;29;20672;-78
2023/11/29 05:26:14;;;;;;;2.92;2.28;;;;;;;3.95;68.69;92588.03;4886251;29;20232;-76
2023/11/29 05:28:40;;;;;;;2.70;2.30;;;;;;;4.12;67.41;92592.59;4884169;29;20032;-77
2023/11/29 05:31:05;;;;;;;8.38;3.70;;;;;;;3.98;68.57;92595.31;4886499;29;20026;-75
2023/11/29 05:33:31;;;;;;;3.35;2.40;;;;;;;4.02;67.76;92577.84;4884299;29;20046;-77
2023/11/29 05:35:56;;;;;;;3.42;2.88;;;;;;;4.06;67.74;92602.47;4887477;29;20032;-77
2023/11/29 05:38:23;;;;;;;19.35;11.30;;;;;;;4.07;68.39;92605.88;4884847;29;20036;-77
2023/11/29 05:40:49;;;;;;;81.53;39.45;;;;;;;3.98;67.51;92573.47;4898155;29;20028;-78
2023/11/29 05:43:15;;;;;;;44.30;23.42;;;;;;;4.11;67.70;92597.06;4896603;29;20036;-79
2023/11/29 05:45:41;;;;;;;13.65;8.43;;;;;;;4.02;67.52;92583.09;4895597;29;20036;-77
2023/11/29 05:48:07;;;;;;;3.35;2.83;;;;;;;4.11;67.60;92604.97;4896935;29;20048;-78
2023/11/29 05:50:33;;;;;;;2.08;1.85;;;;;;;4.10;67.43;92603.44;4910662;29;20607;-76
2023/11/29 05:52:58;;;;;;;2.22;2.03;;;;;;;4.05;67.54;92597.53;4884737;29;20154;-77
2023/11/29 05:55:24;;;;;;;3.78;2.40;;;;;;;4.09;67.92;92599.25;4882307;29;20029;-77
2023/11/29 05:57:49;;;;;;;5.50;4.30;;;;;;;4.23;66.66;92605.19;4876160;29;20064;-77
2023/11/29 06:00:18;;;;;;;6.43;4.13;;;;;;;4.21;67.10;92596.03;4883708;29;20459;-75
2023/11/29 06:02:44;;;;;;;10.98;8.57;;;;;;;4.19;66.34;92606.88;4886027;29;20463;-77
2023/11/29 06:05:09;;;;;;;7.45;5.55;;;;;;;4.09;66.83;92603.72;4882586;29;20147;-77
2023/11/29 06:07:35;;;;;;;6.50;4.43;;;;;;;4.13;67.22;92615.97;4882573;29;20556;-77
2023/11/29 06:10:03;;;;;;;4.53;2.75;;;;;;;3.99;67.40;92620.53;4886473;29;20038;-77
2023/11/29 06:12:29;;;;;;;3.45;2.78;;;;;;;4.11;67.57;92604.97;4886675;29;20039;-78
2023/11/29 06:14:54;;;;;;;3.92;2.63;;;;;;;4.18;66.64;92584.28;4887088;29;20040;-76
2023/11/29 06:17:20;;;;;;;6.00;3.60;;;;;;;4.39;66.10;92624.03;4882878;29;20520;-78
2023/11/29 06:19:47;;;;;;;4.70;4.10;;;;;;;4.43;66.12;92618.94;4883235;29;20036;-77
2023/11/29 06:22:13;;;;;;;5.57;4.55;;;;;;;4.36;66.65;92626.47;4886558;29;20396;-77
2023/11/29 06:24:39;;;;;;;9.50;6.93;;;;;;;4.46;66.42;92621.75;4888664;29;20037;-77
2023/11/29 06:27:04;;;;;;;6.93;4.95;;;;;;;4.42;66.11;92606.84;4885189;29;20055;-77
2023/11/29 06:29:31;;;;;;;5.93;4.18;;;;;;;4.53;66.17;92623.94;4888433;29;20123;-77
2023/11/29 06:31:57;;;;;;;5.03;3.92;;;;;;;4.58;65.90;92621.19;4887068;29;20044;-76
2023/11/29 06:34:23;;;;;;;8.02;5.90;;;;;;;4.60;65.99;92634.81;4888539;29;20497;-77
2023/11/29 06:36:49;;;;;;;5.28;4.28;;;;;;;4.59;65.91;92644.59;4886892;29;20371;-77
2023/11/29 06:39:21;;;;;;;6.95;5.25;;;;;;;4.56;66.05;92636.50;4886300;29;20052;-76
2023/11/29 06:41:47;;;;;;;4.85;3.88;;;;;;;4.59;66.07;92655.13;4880191;29;20211;-77
2023/11/29 06:44:13;;;;;;;8.88;6.88;;;;;;;4.25;66.44;92634.63;4897508;29;20037;-77
2023/11/29 06:46:39;;;;;;;6.35;5.00;;;;;;;4.33;67.05;92663.94;4885014;29;20031;-78
2023/11/29 06:49:09;;;;;;;10.50;7.97;;;;;;;3.90;67.33;92622.34;4886802;29;20036;-77
2023/11/29 06:51:36;;;;;;;9.70;7.30;;;;;;;4.12;67.90;92669.69;4885155;29;20500;-78
2023/11/29 06:54:02;;;;;;;10.10;6.90;;;;;;;4.17;67.54;92664.28;4887122;29;20574;-77
2023/11/29 06:56:28;;;;;;;11.57;7.18;;;;;;;4.39;67.24;92689.06;4884685;29;20059;-78
2023/11/29 06:58:54;;;;;;;7.68;6.18;;;;;;;4.44;67.07;92688.94;4884925;29;20045;-78
2023/11/29 07:01:20;;;;;;;8.73;5.95;;;;;;;4.57;66.45;92695.97;4885160;29;20067;-78
2023/11/29 07:03:45;;;;;;;7.68;6.07;;;;;;;4.62;66.36;92687.94;4887382;29;20550;-77
2023/11/29 07:06:24;;;;;;;12.60;8.30;;;;;;;4.64;66.02;92683.94;4881829;29;20066;-76
2023/11/29 07:08:50;;;;;;;17.98;10.40;;;;;;;4.64;65.39;92683.94;4883366;29;20036;-77
2023/11/29 07:11:16;;;;;;;14.60;9.88;;;;;;;4.78;65.04;92709.41;4884477;29;20033;-77
2023/11/29 07:13:41;;;;;;;15.05;9.30;;;;;;;4.76;64.74;92693.91;4885045;29;20043;-78
2023/11/29 07:16:07;;;;;;;10.23;7.45;;;;;;;4.79;65.77;92689.91;4883989;29;20484;-78
2023/11/29 07:18:32;;;;;;;10.18;7.65;;;;;;;4.78;65.45;92702.28;4888353;29;20393;-78
2023/11/29 07:20:58;;;;;;;10.63;7.60;;;;;;;4.88;65.28;92722.31;4873147;29;20131;-77
2023/11/29 07:23:24;;;;;;;14.65;12.35;;;;;;;4.97;64.78;92721.28;4880683;29;20044;-78
2023/11/29 07:25:49;;;;;;;9.73;6.97;;;;;;;4.75;65.86;92705.50;4875787;29;20030;-77
2023/11/29 07:28:15;;;;;;;10.48;7.93;;;;;;;4.94;65.78;92723.75;4884217;29;20035;-77
2023/11/29 07:30:41;;;;;;;9.25;7.22;;;;;;;4.70;65.51;92674.03;4882473;29;20048;-78
2023/11/29 07:33:07;;;;;;;8.50;6.97;;;;;;;4.96;66.12;92713.66;4898571;29;20083;-76
2023/11/29 07:35:33;;;;;;;10.68;7.25;;;;;;;4.90;67.00;92723.56;4884219;29;20040;-78
2023/11/29 07:37:59;;;;;;;7.88;6.60;;;;;;;4.87;66.69;92718.91;4898776;29;20032;-77
2023/11/29 07:40:25;;;;;;;7.25;6.32;;;;;;;4.64;67.35;92715.56;4876398;29;20416;-77
2023/11/29 07:42:50;;;;;;;6.70;5.95;;;;;;;4.15;68.12;92710.41;4876230;29;20115;-77
2023/11/29 07:45:16;;;;;;;7.93;6.80;;;;;;;3.80;69.99;92706.75;4876328;29;20029;-76
2023/11/29 07:47:43;;;;;;;11.63;6.88;;;;;;;3.41;71.72;92688.94;4888528;29;20232;-77
2023/11/29 07:50:08;;;;;;;8.70;6.47;;;;;;;3.97;69.87;92701.59;4877266;29;20055;-77
2023/11/29 07:52:35;;;;;;;7.85;6.43;;;;;;;4.24;69.33;92712.03;4876843;29;20318;-77
2023/11/29 07:55:03;;;;;;;9.00;5.93;;;;;;;4.11;68.15;92691.78;4876356;29;20040;-77
2023/11/29 07:57:28;;;;;;;6.05;5.13;;;;;;;4.67;66.37;92725.47;4871348;29;20052;-78
2023/11/29 07:59:56;;;;;;;9.05;7.68;;;;;;;4.85;65.82;92741.34;4878950;29;20507;-78
2023/11/29 08:02:21;;;;;;;6.60;5.90;;;;;;;4.79;65.71;92748.63;4885555;29;20734;-78
2023/11/29 08:04:47;;;;;;;10.52;6.55;;;;;;;4.55;67.61;92742.91;4877813;29;20069;-78
2023/11/29 08:07:12;;;;;;;7.68;5.90;;;;;;;4.24;67.63;92740.97;4899487;29;20031;-78
2023/11/29 08:09:37;;;;;;;8.88;6.30;;;;;;;4.29;66.36;92729.56;4881849;29;20025;-77
2023/11/29 08:12:03;;;;;;;8.05;6.13;;;;;;;4.50;66.36;92743.03;4898889;29;20106;-78
2023/11/29 08:14:31;;;;;;;8.50;6.00;;;;;;;4.30;65.43;92740.88;4883062;29;20508;-77
2023/11/29 08:16:57;;;;;;;7.43;5.65;;;;;;;4.58;66.49;92755.47;4874436;29;20034;-78
2023/11/29 08:19:22;;;;;;;7.88;6.15;;;;;;;4.77;65.10;92742.88;4875768;29;20035;-77
2023/11/29 08:21:48;;;;;;;5.93;5.38;;;;;;;4.86;62.64;92745.53;4875317;29;20484;-79
2023/11/29 08:24:14;;;;;;;8.77;6.50;;;;;;;5.04;62.48;92761.13;4895518;29;20060;-77
2023/11/29 08:26:40;;;;;;;7.10;4.82;;;;;;;5.17;62.07;92756.06;4897273;29;20040;-79
2023/11/29 08:29:05;;;;;;;7.30;6.35;;;;;;;5.20;61.17;92742.28;4890488;29;20051;-77
2023/11/29 08:31:31;;;;;;;8.20;6.70;;;;;;;5.20;61.10;92758.09;4870239;29;20567;-77
2023/11/29 08:33:56;;;;;;;8.75;6.63;;;;;;;4.78;62.65;92731.25;4872607;29;20502;-78
2023/11/29 08:36:24;;;;;;;8.10;6.60;;;;;;;4.91;62.44;92754.09;4890786;29;20047;-78
2023/11/29 08:38:51;;;;;;;8.73;7.38;;;;;;;5.14;62.42;92776.66;4875815;29;20036;-78
2023/11/29 08:41:17;;;;;;;11.13;8.27;;;;;;;5.36;63.00;92790.88;4874621;29;21118;-78
2023/11/29 08:43:43;;;;;;;8.80;6.80;;;;;;;5.28;61.49;92786.34;4875860;29;20139;-77
2023/11/29 08:46:08;;;;;;;8.15;7.07;;;;;;;5.21;61.37;92792.06;4878306;29;20432;-78
2023/11/29 08:48:34;;;;;;;11.15;7.35;;;;;;;5.10;62.33;92775.72;4876181;29;20036;-77
2023/11/29 08:50:59;;;;;;;9.30;7.88;;;;;;;5.39;61.59;92798.16;4876587;29;21268;-77
2023/11/29 08:53:25;;;;;;;9.63;8.00;;;;;;;5.12;61.08;92783.34;4875617;29;20778;-78
2023/11/29 08:55:50;;;;;;;9.23;6.70;;;;;;;5.30;61.17;92786.81;4873092;29;20107;-78
2023/11/29 08:58:17;;;;;;;11.45;8.07;;;;;;;5.17;61.16;92769.25;4875231;29;20496;-78
2023/11/29 09:00:42;;;;;;;10.43;7.05;;;;;;;5.11;60.55;92785.19;4872195;29;20104;-79
2023/11/29 09:03:11;;;;;;;9.88;8.55;;;;;;;5.04;60.94;92755.84;4874582;29;20040;-77
2023/11/29 09:05:40;;;;;;;10.70;8.77;;;;;;;5.02;60.42;92773.06;4878204;29;20055;-78
2023/11/29 09:08:07;;;;;;;9.90;8.75;;;;;;;5.32;60.71;92782.03;4873412;29;20044;-77
2023/11/29 09:10:32;;;;;;;9.00;6.97;;;;;;;5.31;59.89;92775.19;4873509;29;20036;-77
2023/11/29 09:12:59;;;;;;;11.82;7.93;;;;;;;5.55;59.57;92783.50;4876341;29;20047;-78
2023/11/29 09:15:25;;;;;;;10.13;8.18;;;;;;;5.41;60.13;92770.41;4876656;29;20715;-78
2023/11/29 09:17:51;;;;;;;10.98;8.15;;;;;;;5.39;59.41;92777.06;4878170;29;20040;-78
2023/11/29 09:20:17;;;;;;;10.90;8.38;;;;;;;4.99;60.78;92761.25;4888118;29;20465;-77
2023/11/29 09:22:42;;;;;;;8.90;7.43;;;;;;;5.22;60.98;92787.56;4874068;29;20047;-77
2023/11/29 09:25:08;;;;;;;12.10;8.52;;;;;;;5.23;60.21;92782.00;4876443;29;20027;-78
2023/11/29 09:27:33;;;;;;;11.48;7.85;;;;;;;5.33;60.72;92783.59;4876329;29;20037;-78
2023/11/29 09:30:00;;;;;;;11.57;8.52;;;;;;;5.43;60.24;92783.31;4875567;29;20051;-77
2023/11/29 09:32:26;;;;;;;9.18;7.80;;;;;;;5.29;60.73;92770.22;4887522;29;20424;-78
2023/11/29 09:34:51;;;;;;;9.52;6.35;;;;;;;5.17;60.85;92780.56;4878334;29;20035;-78
2023/11/29 09:37:17;;;;;;;7.85;5.63;;;;;;;5.20;61.01;92773.91;4875692;29;20074;-77
2023/11/29 09:39:42;;;;;;;10.25;5.38;;;;;;;5.25;60.95;92776.41;4876408;29;20048;-78
2023/11/29 09:42:09;;;;;;;8.40;5.70;;;;;;;5.25;61.54;92786.94;4873700;29;20324;-77
2023/11/29 09:44:39;;;;;;;8.88;7.07;;;;;;;5.18;61.53;92786.63;4876629;29;20052;-77
2023/11/29 09:47:07;;;;;;;12.15;6.90;;;;;;;5.26;62.24;92794.56;4892354;29;20459;-78
2023/11/29 09:49:33;;;;;;;10.10;8.10;;;;;;;5.25;61.96;92781.66;4893115;29;20120;-77
2023/11/29 09:51:59;;;;;;;13.23;7.43;;;;;;;5.31;61.50;92788.38;4880991;29;20059;-78
2023/11/29 09:54:24;;;;;;;8.93;7.30;;;;;;;5.46;61.80;92787.97;4877622;29;20080;-79
2023/11/29 09:56:50;;;;;;;9.02;7.00;;;;;;;5.53;61.51;92775.09;4892007;29;20044;-77
2023/11/29 09:59:17;;;;;;;8.00;5.20;;;;;;;5.56;61.88;92790.31;4892383;29;20124;-79
2023/11/29 10:01:46;;;;;;;5.78;5.03;;;;;;;5.64;61.57;92804.59;4871064;29;20658;-76
2023/11/29 10:04:12;;;;;;;6.13;4.70;;;;;;;5.54;61.89;92790.63;4881578;29;20488;-77
2023/11/29 10:06:38;;;;;;;8.55;6.25;;;;;;;5.58;61.29;92783.66;4878447;29;20411;-78
2023/11/29 10:09:06;;;;;;;9.50;7.22;;;;;;;5.76;61.03;92808.22;4877142;29;20973;-78
2023/11/29 10:11:35;;;;;;;8.63;6.45;;;;;;;5.75;61.77;92800.59;4877880;29;20482;-78
2023/11/29 10:14:04;;;;;;;11.30;5.88;;;;;;;5.82;61.93;92803.59;4880643;29;20525;-78
2023/11/29 10:16:30;;;;;;;8.95;6.35;;;;;;;5.85;61.74;92811.66;4879123;29;20028;-78
2023/11/29 10:18:56;;;;;;;6.55;5.40;;;;;;;5.83;62.25;92811.19;4877351;29;20047;-79
2023/11/29 10:21:22;;;;;;;8.85;6.18;;;;;;;5.81;61.36;92810.72;4877400;29;20037;-78
2023/11/29 10:23:49;;;;;;;7.68;6.53;;;;;;;5.78;61.59;92816.59;4879648;29;21042;-79
2023/11/29 10:26:15;;;;;;;9.80;6.57;;;;;;;5.71;60.94;92787.25;4878787;29;20218;-78
2023/11/29 10:28:41;;;;;;;9.07;6.38;;;;;;;5.84;61.08;92812.72;4871510;29;20048;-76
2023/11/29 10:31:08;;;;;;;8.18;6.25;;;;;;;5.87;61.24;92816.63;4879071;29;20028;-77
2023/11/29 10:33:34;;;;;;;8.02;6.25;;;;;;;5.79;61.76;92791.00;4883908;29;20743;-78
2023/11/29 10:36:01;;;;;;;10.77;6.90;;;;;;;5.52;63.15;92807.84;4877581;29;20040;-77
2023/11/29 10:38:29;;;;;;;10.88;7.22;;;;;;;5.70;63.10;92814.72;4873797;29;20200;-78
2023/11/29 10:40:59;;;;;;;10.35;6.57;;;;;;;5.29;64.06;92779.97;4889141;29;20495;-77
2023/11/29 10:43:29;;;;;;;7.47;6.35;;;;;;;5.39;64.41;92819.25;4851658;29;20040;-78
2023/11/29 10:46:03;;;;;;;10.95;6.38;;;;;;;5.64;63.41;92815.94;4873952;29;20045;-78
2023/11/29 10:48:30;;;;;;;7.38;6.25;;;;;;;5.70;62.67;92820.00;4874646;29;20316;-78
2023/11/29 10:50:57;;;;;;;7.45;6.22;;;;;;;5.70;63.37;92821.84;4870096;29;20452;-78
2023/11/29 10:53:23;;;;;;;12.00;6.28;;;;;;;5.66;63.18;92802.44;4869321;29;20045;-79
2023/11/29 10:55:50;;;;;;;7.30;6.03;;;;;;;5.55;63.35;92801.94;4879563;29;20119;-77
2023/11/29 10:58:22;;;;;;;9.38;7.18;;;;;;;5.74;63.54;92834.13;4874215;29;20040;-78
2023/11/29 11:00:48;;;;;;;9.43;7.28;;;;;;;5.68;62.82;92827.44;4876255;29;20406;-79
2023/11/29 11:03:42;;;;;;;13.20;9.95;;;;;;;5.68;63.35;92853.81;4878743;29;20051;-78
2023/11/29 11:06:23;;;;;;;17.13;12.07;;;;;;;5.61;64.13;92864.03;4876574;29;20033;-77
2023/11/29 11:08:52;;;;;;;20.20;13.40;;;;;;;5.52;64.43;92842.91;4875122;29;20080;-77
2023/11/29 11:11:43;;;;;;;14.80;12.18;;;;;;;5.54;64.61;92847.84;4875523;29;20048;-78
2023/11/29 11:14:22;;;;;;;17.48;12.27;;;;;;;5.64;64.44;92852.88;4872000;29;20044;-77
2023/11/29 11:17:01;;;;;;;13.82;10.98;;;;;;;5.42;64.53;92835.28;4872802;29;20036;-78
2023/11/29 11:19:40;;;;;;;12.48;9.77;;;;;;;5.44;64.88;92848.13;4873418;29;20800;-78
2023/11/29 11:22:14;;;;;;;15.77;10.55;;;;;;;5.37;65.62;92858.34;4874136;29;20064;-77
2023/11/29 11:25:04;;;;;;;12.68;9.90;;;;;;;5.40;65.89;92852.47;4892541;29;20249;-78
2023/11/29 11:27:29;;;;;;;17.35;11.45;;;;;;;5.38;66.09;92844.84;4867729;29;20067;-77
2023/11/29 11:29:55;;;;;;;10.32;7.57;;;;;;;5.40;65.85;92834.78;4872895;29;20044;-77
2023/11/29 11:32:56;;;;;;;8.93;7.10;;;;;;;5.31;66.23;92862.97;4876901;29;20371;-78
2023/11/29 11:35:24;;;;;;;8.73;6.25;;;;;;;5.18;66.79;92855.94;4837448;29;20052;-79